Avondale, CO

1:58 PM MDT on August 31, 2015 (GMT -0600)
Pueblo Memorial | | Change Station
CLOSE
Current Station
Airport
Location: Pueblo,
Elevation: 4721 ft
Nearby Weather Stations

Elev 4721 ft 38.29 °N, 104.50 °W | Updated 5 minutes ago

Clear
Clear
93 °F
Feels Like 93 °F
N
4
Wind Variable Wind from Variable

Today
High -- | Low -- °F
--% Chance of Precip.
Yesterday
High -- | Low -- °F
Precip. -- in
6:26 AM 7:28 PM
Waning Gibbous, 94% visible
Pressure 29.80 in
Visibility 10.0 miles
Clouds Clear
Dew Point 44 °F
Humidity 18%
Rainfall 0.00 in
Snow Depth Not available.
UV 10 out of 12
Pollen 10.60 out of 12
Air Quality Not available.
Flu Activity Not available.
METAR KPUB 311953Z VRB03KT 10SM CLR 34/07 A3002 RMK AO2 SLP089 T03390067
Pressure 29.80 in
Visibility 10.0 miles
Clouds Clear
Dew Point 44 °F
Humidity 18%
Rainfall 0.00 in
Snow Depth Not available.
UV 10 out of 12
Pollen 10.60 out of 12
Air Quality Not available.
Flu Activity Not available.
METAR KPUB 311953Z VRB03KT 10SM CLR 34/07 A3002 RMK AO2 SLP089 T03390067

10-Day Weather Forecast

×

Almanac

Astronomy

Aug. 31, 2015 Rise Set
Actual Time
Civil Twilight
Nautical Twilight
Astronomical Twilight
Moon
Length of Visible Light
Length of Day
Tomorrow will be .
, % of the Moon is Illuminated

Today's Extremes

State Highs State Lows

Community

WunderPhotos

Upload Photos

1,851,346 photos uploaded!

WunderBlogs® & News

Nearby

Air Quality

  Air Quality AQ Index Pollutant
Not available.

Snow Depth

Station Depth Elevation

Earthquake Activity

City Distance Mag. Time & Date
Minimum magnitude displayed is 2.5.

Coastal Water Temperatures

Place Temperature

Stations

Nearby Weather Stations

Station Location Temp. Windchill Dew Point Humidity Wind Precip. Elev Updated Type